Latest Coastal Weather Observations for South Johnstone

IDQ60701

Issued at 5:13 pm EST Wednesday 8 February 2023 (issued every 10 minutes, with the page automatically refreshed every 10 minutes)

About coastal observations | Map of coastal stations | Coastal observations for QLD | Marine services | Other Formats
Station Details ID: 032037 Name: SOUTH JOHNSTONE EXP STN Lat: -17.61 Lon: 146.00 Height: 18.3 m
Data from the previous 72 hours. | See also: Recent months at South Johnstone
Date/Time
EST
Wind Sea
Height
m
Swell Vis
km
Cloud Weather Temp
°C
Press
MSL
hPa
Rain since
9am
mm
Dir  Spd
kts
Gust
kts
Height
m
Period
s
Dir
08/05:00pm S 7 12 - - - - - - - 29.6 1002.4 6.2
08/04:30pm S 6 11 - - - - - - - 30.1 1002.2 6.2
08/04:00pm SSE 7 11 - - - - - - - 30.2 1002.4 6.2
08/03:30pm SSE 8 14 - - - - - - - 30.1 1002.6 6.2
08/03:00pm S 6 8 - - - - - - - 30.2 1002.8 6.2
08/02:30pm S 7 12 - - - - - - - 29.7 1003.0 6.2
08/02:00pm S 7 11 - - - - - - - 29.7 1003.5 6.2
08/01:30pm SSE 8 12 - - - - - - - 30.4 1003.5 6.2
08/01:00pm SSE 7 13 - - - - - - - 30.3 1003.9 6.2
08/12:30pm SSE 7 11 - - - - - - - 30.1 1004.3 6.2
08/12:00pm SSE 7 10 - - - - - - Recent precip. 28.7 1004.8 6.0
08/11:30am SSE 6 11 - - - - - - - 27.7 1005.1 6.0
08/11:00am SSW 4 9 - - - - - - - 28.1 1005.2 5.8
08/10:30am SW 4 6 - - - - - - - 26.1 1005.7 5.8
08/10:00am WSW 3 6 - - - - - - - 25.6 1006.0 5.6
08/09:30am ESE 3 6 - - - - - - - 25.9 1006.4 1.8
08/09:00am S 6 10 - - - - - - Recent precip. 26.4 1006.2 7.0
08/08:30am SW 6 9 - - - - - - - 26.3 1006.4 5.2
08/08:00am SW 5 8 - - - - - - - 26.3 1005.9 3.0
08/07:30am WSW 1 5 - - - - - - - 25.7 1005.9 3.0
08/07:00am SW 5 7 - - - - - - - 25.5 1005.6 2.8
08/06:30am SW 5 8 - - - - - - - 25.5 1005.2 2.6
08/06:00am SW 6 9 - - - - - - Recent precip. 25.9 1005.0 1.0
08/05:30am SW 5 7 - - - - - - - 25.5 1004.6 1.0
08/05:00am SW 4 7 - - - - - - - 25.4 1004.3 0.4
08/04:30am CALM 0 0 - - - - - - - 25.2 1004.2 0.0
08/04:00am SSE 3 7 - - - - - - - 25.7 1004.3 0.0
08/03:30am SW 6 8 - - - - - - - 25.9 1004.4 0.0
08/03:00am WSW 4 6 - - - - - - - 25.7 1004.5 0.0
08/02:30am SW 5 8 - - - - - - - 26.6 1004.9 0.0
08/02:00am SSW 6 10 - - - - - - - 26.8 1005.1 0.0
08/01:30am SSW 3 6 - - - - - - - 27.0 1005.4 0.0
08/01:00am S 5 11 - - - - - - - 27.4 1005.8 0.0
08/12:30am SSW 6 9 - - - - - - - 27.3 1006.3 0.0
08/12:00am SSW 5 9 - - - - - - - 27.2 1006.5 0.0
 
Date/Time
EST
Wind Sea
Height
m
Swell Vis
km
Cloud Weather Temp
°C
Press
MSL
hPa
Rain since
9am
mm
Dir  Spd
kts
Gust
kts
Height
m
Period
s
Dir
07/11:30pm SW 5 6 - - - - - - - 26.9 1006.8 0.0
07/11:00pm SSW 7 9 - - - - - - - 26.9 1007.0 0.0
07/10:30pm SW 7 10 - - - - - - - 26.4 1007.3 0.0
07/10:00pm WSW 6 7 - - - - - - - 26.0 1007.3 0.0
07/09:30pm WSW 5 6 - - - - - - - 26.4 1007.3 0.0
07/09:00pm SW 5 7 - - - - - - - 26.6 1006.9 0.0
07/08:30pm SSW 4 6 - - - - - - - 27.4 1006.6 0.0
07/08:00pm S 1 5 - - - - - - - 27.4 1006.6 0.0
07/07:30pm SSW 5 8 - - - - - - - 27.9 1006.3 0.0
07/07:00pm S 4 7 - - - - - - - 28.0 1005.9 0.0
07/06:30pm SSW 5 7 - - - - - - - 28.8 1005.4 0.0
07/06:00pm S 5 8 - - - - - - - 29.1 1005.2 0.0
07/05:30pm S 6 11 - - - - - - - 29.8 1005.0 0.0
07/05:00pm SSE 6 11 - - - - - - - 29.5 1005.1 0.0
07/04:30pm SE 8 13 - - - - - - - 30.1 1005.1 0.0
07/04:00pm SSE 7 14 - - - - - - - 30.3 1005.3 0.0
07/03:30pm SSE 7 12 - - - - - - - 30.2 1005.3 0.0
07/03:00pm SE 8 13 - - - - - - - 30.0 1005.4 0.0
07/02:30pm SE 5 8 - - - - - - - 29.6 1005.5 0.0
07/02:00pm SSE 7 11 - - - - - - - 31.3 1005.6 0.0
07/01:30pm S 5 8 - - - - - - - 30.4 1006.1 0.0
07/01:00pm SSE 5 11 - - - - - - - 31.2 1006.2 0.0
07/12:30pm S 6 10 - - - - - - - 29.8 1006.8 0.0
07/12:00pm S 7 10 - - - - - - - 29.3 1007.3 0.0
07/11:30am S 4 8 - - - - - - - 29.4 1007.6 0.0
07/11:00am SSE 7 11 - - - - - - - 30.0 1007.7 0.0
07/10:30am SSE 7 10 - - - - - - - 30.5 1008.0 0.0
07/10:00am S 6 8 - - - - - - - 30.4 1008.2 0.0
07/09:30am S 6 12 - - - - - - - 29.5 1008.3 0.0
07/09:00am SSE 6 10 - - - - - - - 29.7 1008.2 1.4
07/08:30am NW 1 6 - - - - - - - 27.9 1008.1 1.4
07/08:00am WSW 1 4 - - - - - - - 27.1 1007.9 1.4
07/07:30am CALM 0 0 - - - - - - - 25.3 1007.7 1.4
07/07:00am WSW 1 5 - - - - - - - 24.7 1007.7 1.4
07/06:30am WSW 2 5 - - - - - - - 24.5 1007.5 1.4
07/06:00am CALM 0 3 - - - - - - - 24.5 1007.0 1.4
07/05:30am CALM 0 2 - - - - - - - 24.5 1006.8 1.4
07/05:00am W 1 4 - - - - - - - 24.7 1006.7 1.4
07/04:30am WSW 4 6 - - - - - - - 25.0 1006.8 1.4
07/04:00am WNW 1 4 - - - - - - - 24.8 1006.8 1.2
07/03:30am WNW 1 5 - - - - - - - 24.8 1006.7 1.2
07/03:00am CALM 0 0 - - - - - - - 24.7 1006.7 1.2
07/02:30am CALM 0 2 - - - - - - - 24.8 1007.0 1.2
07/02:00am W 1 5 - - - - - - - 25.0 1007.3 1.2
07/01:30am CALM 0 0 - - - - - - - 25.2 1007.4 1.2
07/01:00am CALM 0 0 - - - - - - - 25.5 1007.9 1.2
07/12:30am CALM 0 0 - - - - - - - 26.0 1008.2 1.2
07/12:00am S 2 4 - - - - - - - 26.4 1008.5 1.2
 
Date/Time
EST
Wind Sea
Height
m
Swell Vis
km
Cloud Weather Temp
°C
Press
MSL
hPa
Rain since
9am
mm
Dir  Spd
kts
Gust
kts
Height
m
Period
s
Dir
06/11:30pm SSE 2 4 - - - - - - - 26.3 1008.8 1.2
06/11:00pm S 1 5 - - - - - - - 26.3 1008.9 1.2
06/10:30pm S 1 4 - - - - - - - 26.5 1008.9 1.2
06/10:00pm SE 3 9 - - - - - - - 26.4 1008.9 1.2
06/09:30pm CALM 0 3 - - - - - - - 26.4 1008.8 1.0
06/09:00pm CALM 0 0 - - - - - - - 26.5 1008.6 1.0
06/08:30pm CALM 0 0 - - - - - - - 26.7 1008.3 1.0
06/08:00pm CALM 0 0 - - - - - - - 26.8 1008.3 1.0
06/07:30pm E 6 10 - - - - - - - 27.0 1008.0 1.0
06/07:00pm CALM 0 0 - - - - - - - 27.2 1007.5 1.0
06/06:30pm NE 2 5 - - - - - - - 27.5 1007.2 1.0
06/06:00pm SE 4 8 - - - - - - - 30.0 1006.8 1.0
06/05:30pm SE 6 10 - - - - - - - 30.3 1006.8 1.0
06/05:00pm SE 7 12 - - - - - - - 30.6 1006.7 1.0
06/04:30pm SSE 6 10 - - - - - - - 31.1 1006.9 1.0
06/04:00pm SSE 6 10 - - - - - - - 30.8 1006.8 1.0
06/03:30pm ESE 7 11 - - - - - - - 31.2 1007.0 1.0
06/03:00pm ESE 6 10 - - - - - - Recent precip. 31.2 1007.2 1.0
06/02:30pm SE 6 12 - - - - - - - 30.7 1007.2 1.0
06/02:00pm SE 6 10 - - - - - - - 31.0 1007.4 0.8
06/01:30pm SE 5 10 - - - - - - - 29.8 1007.6 0.8
06/01:00pm SSE 4 7 - - - - - - - 28.7 1008.0 0.4
06/12:30pm SSE 8 13 - - - - - - - 27.2 1008.6 0.4
06/12:00pm ESE 6 10 - - - - - - - 31.0 1008.7 0.2
06/11:30am E 6 11 - - - - - - - 30.9 1009.1 0.2
06/11:00am ESE 7 13 - - - - - - - 30.5 1009.5 0.2
06/10:30am SE 7 11 - - - - - - - 29.6 1009.6 0.0
06/10:00am SSE 5 8 - - - - - - - 29.4 1009.6 0.0
06/09:30am SSE 5 7 - - - - - - - 28.6 1009.7 0.0
06/09:00am S 4 8 - - - - - - - 28.2 1009.9 1.0
06/08:30am SSW 5 10 - - - - - - - 27.6 1009.9 1.0
06/08:00am SW 4 7 - - - - - - - 26.8 1009.6 1.0
06/07:30am S 3 6 - - - - - - - 26.8 1009.3 0.4
06/07:00am S 2 5 - - - - - - - 26.0 1009.3 0.4
06/06:30am S 3 6 - - - - - - - 25.4 1009.1 0.4
06/06:00am WSW 1 6 - - - - - - - 24.9 1008.6 0.2
06/05:30am SW 2 5 - - - - - - - 24.8 1008.0 0.2
06/05:00am SW 1 5 - - - - - - - 24.7 1007.6 0.2
06/04:30am CALM 0 0 - - - - - - - 25.0 1007.6 0.2
06/04:00am CALM 0 0 - - - - - - - 24.9 1007.7 0.2
06/03:30am CALM 0 0 - - - - - - - 25.0 1007.3 0.2
06/03:00am CALM 0 3 - - - - - - Recent precip. 25.1 1007.4 0.2
06/02:30am SW 2 5 - - - - - - - 25.3 1007.2 0.2
06/02:00am WSW 2 6 - - - - - - - 25.3 1007.3 0.0
06/01:30am CALM 0 0 - - - - - - - 25.4 1007.4 0.0
06/01:00am WSW 3 5 - - - - - - - 25.6 1008.0 0.0
06/12:30am WSW 4 6 - - - - - - - 25.7 1008.4 0.0
06/12:00am SW 1 4 - - - - - - - 25.9 1008.5 0.0
 
Date/Time
EST
Wind Sea
Height
m
Swell Vis
km
Cloud Weather Temp
°C
Press
MSL
hPa
Rain since
9am
mm
Dir  Spd
kts
Gust
kts
Height
m
Period
s
Dir
05/11:30pm W 1 6 - - - - - - - 26.0 1008.6 0.0
05/11:00pm CALM 0 0 - - - - - - - 26.1 1008.7 0.0
05/10:30pm CALM 0 0 - - - - - - - 26.2 1008.8 0.0
05/10:00pm CALM 0 0 - - - - - - - 26.4 1008.8 0.0
05/09:30pm CALM 0 0 - - - - - - - 26.4 1008.3 0.0
05/09:00pm N 1 5 - - - - - - - 26.7 1008.1 0.0
05/08:30pm CALM 0 4 - - - - - - - 27.1 1007.6 0.0
05/08:00pm CALM 0 3 - - - - - - - 27.2 1007.5 0.0
05/07:30pm CALM 0 0 - - - - - - - 27.4 1007.2 0.0
05/07:00pm ESE 2 5 - - - - - - - 27.9 1007.0 0.0
05/06:30pm ESE 4 7 - - - - - - - 28.5 1006.4 0.0
05/06:00pm E 5 8 - - - - - - - 29.2 1006.0 0.0
05/05:30pm E 4 8 - - - - - - - 29.6 1005.6 0.0

Other formats

Comma delimited format used in spreadsheet applications
http://www.bom.gov.au/fwo/IDQ60701/IDQ60701.95292.axf

JavaScript Object Notation format (JSON) in row-major order
http://www.bom.gov.au/fwo/IDQ60701/IDQ60701.95292.json

Data quality

Most of these data are generated automatically and are frequently updated. Quality checks on data are not normally performed. It is possible for incorrect values to appear. Refer to information at About Latest Weather Observations and please check the disclaimer before using these data.